N636CB EDST-EDDS
Flight info
| Callsign | N636CB |
|---|---|
| Flight time | 0h 27m |
| Altitude | |
| Route | |
| Aircraft | C172 |
Departure
| Time | 2026-05-05 18:30 |
|---|---|
| Airport | Hahnweide Airfield (EDST) |
Arrival
| Time | 2026-05-05 18:57 |
|---|---|
| Airport | Stuttgart Airport (EDDS) |
| Time | Latitude | Longitude | Altitude | Speed | Heading |
|---|---|---|---|---|---|
| 2026-05-05 18:30 | 48.61402 | 9.31078 | 2401 ft | 100 kts | 248° |
| 2026-05-05 18:30 | 48.61120 | 9.30118 | 2478 ft | 99 kts | 245° |
| 2026-05-05 18:30 | 48.60851 | 9.29162 | 2549 ft | 98 kts | 248° |
| 2026-05-05 18:30 | 48.60579 | 9.28215 | 2624 ft | 98 kts | 249° |
| 2026-05-05 18:31 | 48.60440 | 9.27214 | 2697 ft | 98 kts | 267° |
| 2026-05-05 18:31 | 48.60556 | 9.26204 | 2772 ft | 98 kts | 282° |
| 2026-05-05 18:31 | 48.60749 | 9.25214 | 2836 ft | 98 kts | 284° |
| 2026-05-05 18:31 | 48.60955 | 9.24221 | 2905 ft | 98 kts | 284° |
| 2026-05-05 18:32 | 48.61185 | 9.23265 | 2971 ft | 99 kts | 296° |
| 2026-05-05 18:32 | 48.61785 | 9.22673 | 2996 ft | 112 kts | 342° |
| 2026-05-05 18:32 | 48.62588 | 9.22716 | 3004 ft | 120 kts | 5° |
| 2026-05-05 18:32 | 48.63413 | 9.22986 | 3006 ft | 122 kts | 6° |
| 2026-05-05 18:33 | 48.64246 | 9.23275 | 3001 ft | 122 kts | 7° |
| 2026-05-05 18:33 | 48.65079 | 9.23570 | 2998 ft | 121 kts | 7° |
| 2026-05-05 18:33 | 48.65904 | 9.23871 | 2987 ft | 122 kts | 9° |
| 2026-05-05 18:33 | 48.66752 | 9.24290 | 2863 ft | 128 kts | 17° |
| 2026-05-05 18:34 | 48.67545 | 9.24860 | 2706 ft | 127 kts | 27° |
| 2026-05-05 18:34 | 48.68058 | 9.25808 | 2506 ft | 113 kts | 74° |
| 2026-05-05 18:34 | 48.68364 | 9.26781 | 2363 ft | 97 kts | 45° |
| 2026-05-05 18:34 | 48.68977 | 9.27173 | 2034 ft | 101 kts | 1° |
| 2026-05-05 18:35 | 48.69659 | 9.27068 | 1723 ft | 99 kts | 328° |
| 2026-05-05 18:35 | 48.69801 | 9.26226 | 1521 ft | 83 kts | 248° |
| 2026-05-05 18:35 | 48.69594 | 9.25469 | 1389 ft | 77 kts | 253° |
| 2026-05-05 18:35 | 48.69458 | 9.24682 | 1287 ft | 73 kts | 254° |
| 2026-05-05 18:36 | 48.69329 | 9.23998 | 1196 ft | 62 kts | 252° |
| 2026-05-05 18:36 | 48.69210 | 9.23380 | 1228 ft | 67 kts | 250° |
| 2026-05-05 18:36 | 48.69056 | 9.22648 | 1354 ft | 76 kts | 246° |
| 2026-05-05 18:36 | 48.68904 | 9.21858 | 1479 ft | 82 kts | 252° |
| 2026-05-05 18:37 | 48.68744 | 9.20979 | 1589 ft | 89 kts | 251° |
| 2026-05-05 18:37 | 48.68571 | 9.20100 | 1759 ft | 87 kts | 248° |
| 2026-05-05 18:37 | 48.68133 | 9.19603 | 1906 ft | 87 kts | 172° |
| 2026-05-05 18:37 | 48.67517 | 9.19804 | 1986 ft | 95 kts | 168° |
| 2026-05-05 18:38 | 48.66925 | 9.20247 | 2047 ft | 104 kts | 125° |
| 2026-05-05 18:38 | 48.66934 | 9.21350 | 2072 ft | 109 kts | 72° |
| 2026-05-05 18:38 | 48.67175 | 9.22426 | 2175 ft | 109 kts | 70° |
| 2026-05-05 18:38 | 48.67440 | 9.23516 | 2273 ft | 109 kts | 69° |
| 2026-05-05 18:39 | 48.67704 | 9.24605 | 2365 ft | 110 kts | 71° |
| 2026-05-05 18:39 | 48.67842 | 9.25738 | 2414 ft | 113 kts | 99° |
| 2026-05-05 18:39 | 48.67454 | 9.26740 | 2439 ft | 112 kts | 147° |
| 2026-05-05 18:39 | 48.66714 | 9.26919 | 2396 ft | 112 kts | 200° |
| 2026-05-05 18:40 | 48.66190 | 9.26131 | 2395 ft | 110 kts | 251° |
| 2026-05-05 18:40 | 48.66328 | 9.25000 | 2366 ft | 115 kts | 305° |
| 2026-05-05 18:40 | 48.67065 | 9.24534 | 2308 ft | 125 kts | 2° |
| 2026-05-05 18:40 | 48.67759 | 9.25287 | 2265 ft | 129 kts | 61° |
| 2026-05-05 18:41 | 48.68120 | 9.26471 | 2247 ft | 117 kts | 69° |
| 2026-05-05 18:41 | 48.68383 | 9.27536 | 2127 ft | 100 kts | 66° |
| 2026-05-05 18:41 | 48.68879 | 9.28106 | 1958 ft | 90 kts | 9° |
| 2026-05-05 18:41 | 48.69470 | 9.27932 | 1747 ft | 87 kts | 330° |
| 2026-05-05 18:42 | 48.69776 | 9.27253 | 1588 ft | 76 kts | 272° |
| 2026-05-05 18:42 | 48.69748 | 9.26465 | 1476 ft | 73 kts | 261° |
| 2026-05-05 18:42 | 48.69650 | 9.25737 | 1380 ft | 71 kts | 255° |
| 2026-05-05 18:42 | 48.69517 | 9.25008 | 1299 ft | 70 kts | 252° |
| 2026-05-05 18:43 | 48.69387 | 9.24312 | 1216 ft | 67 kts | 253° |
| 2026-05-05 18:43 | 48.69269 | 9.23691 | 1188 ft | 60 kts | 252° |
| 2026-05-05 18:43 | 48.69135 | 9.22965 | 1285 ft | 76 kts | 249° |
| 2026-05-05 18:43 | 48.68958 | 9.22173 | 1425 ft | 81 kts | 247° |
| 2026-05-05 18:44 | 48.68814 | 9.21349 | 1640 ft | 76 kts | 252° |
| 2026-05-05 18:44 | 48.68682 | 9.20596 | 1824 ft | 74 kts | 250° |
| 2026-05-05 18:44 | 48.68525 | 9.19844 | 1978 ft | 76 kts | 243° |
| 2026-05-05 18:44 | 48.68044 | 9.19561 | 2045 ft | 88 kts | 167° |
| 2026-05-05 18:45 | 48.67473 | 9.19815 | 2212 ft | 87 kts | 162° |
| 2026-05-05 18:45 | 48.66922 | 9.20212 | 2347 ft | 92 kts | 133° |
| 2026-05-05 18:45 | 48.66928 | 9.21193 | 2444 ft | 100 kts | 67° |
| 2026-05-05 18:45 | 48.67179 | 9.22154 | 2606 ft | 98 kts | 67° |
| 2026-05-05 18:46 | 48.67422 | 9.23097 | 2765 ft | 97 kts | 68° |
| 2026-05-05 18:46 | 48.67662 | 9.24067 | 2895 ft | 98 kts | 67° |
| 2026-05-05 18:46 | 48.68024 | 9.24918 | 2999 ft | 99 kts | 25° |
| 2026-05-05 18:46 | 48.68690 | 9.24941 | 3078 ft | 95 kts | 338° |
| 2026-05-05 18:47 | 48.69276 | 9.24588 | 3195 ft | 89 kts | 306° |
| 2026-05-05 18:47 | 48.69275 | 9.23803 | 3136 ft | 72 kts | 255° |
| 2026-05-05 18:47 | 48.68887 | 9.23415 | 2909 ft | 83 kts | 178° |
| 2026-05-05 18:47 | 48.68315 | 9.23579 | 2685 ft | 82 kts | 174° |
| 2026-05-05 18:48 | 48.68070 | 9.24351 | 2435 ft | 94 kts | 79° |
| 2026-05-05 18:48 | 48.68323 | 9.25241 | 2229 ft | 92 kts | 65° |
| 2026-05-05 18:48 | 48.68728 | 9.25982 | 1995 ft | 92 kts | 32° |
| 2026-05-05 18:48 | 48.69324 | 9.26169 | 1803 ft | 86 kts | 340° |
| 2026-05-05 18:49 | 48.69712 | 9.25551 | 1603 ft | 80 kts | 276° |
| 2026-05-05 18:49 | 48.69449 | 9.24915 | 1414 ft | 76 kts | 240° |
| 2026-05-05 18:49 | 48.69351 | 9.24125 | 1221 ft | 74 kts | 256° |
| 2026-05-05 18:49 | 48.69226 | 9.23461 | 1193 ft | 59 kts | 253° |
| 2026-05-05 18:50 | 48.69092 | 9.22768 | 1311 ft | 72 kts | 245° |
| 2026-05-05 18:50 | 48.68936 | 9.22000 | 1455 ft | 78 kts | 250° |
| 2026-05-05 18:50 | 48.68792 | 9.21161 | 1572 ft | 85 kts | 252° |
| 2026-05-05 18:50 | 48.68619 | 9.20272 | 1684 ft | 88 kts | 249° |
| 2026-05-05 18:51 | 48.68375 | 9.19529 | 1796 ft | 76 kts | 215° |
| 2026-05-05 18:51 | 48.67903 | 9.19612 | 1865 ft | 74 kts | 159° |
| 2026-05-05 18:51 | 48.67418 | 9.19959 | 1934 ft | 77 kts | 153° |
| 2026-05-05 18:51 | 48.66956 | 9.20393 | 2029 ft | 81 kts | 136° |
| 2026-05-05 18:52 | 48.66936 | 9.21246 | 2059 ft | 91 kts | 61° |
| 2026-05-05 18:52 | 48.67226 | 9.22091 | 2075 ft | 88 kts | 63° |
| 2026-05-05 18:52 | 48.67485 | 9.22915 | 2132 ft | 86 kts | 67° |
| 2026-05-05 18:52 | 48.67693 | 9.23746 | 2199 ft | 89 kts | 69° |
| 2026-05-05 18:53 | 48.67893 | 9.24653 | 2261 ft | 92 kts | 73° |
| 2026-05-05 18:53 | 48.68071 | 9.25594 | 2326 ft | 93 kts | 74° |
| 2026-05-05 18:53 | 48.68262 | 9.26543 | 2381 ft | 94 kts | 72° |
| 2026-05-05 18:53 | 48.68472 | 9.27500 | 2357 ft | 98 kts | 71° |
| 2026-05-05 18:54 | 48.68712 | 9.28469 | 2355 ft | 96 kts | 69° |
| 2026-05-05 18:54 | 48.68931 | 9.29419 | 2260 ft | 89 kts | 69° |
| 2026-05-05 18:54 | 48.69390 | 9.29936 | 2147 ft | 84 kts | 358° |
| 2026-05-05 18:54 | 48.69912 | 9.29604 | 2052 ft | 84 kts | 327° |
| 2026-05-05 18:55 | 48.70181 | 9.28902 | 1951 ft | 78 kts | 263° |
| 2026-05-05 18:55 | 48.70079 | 9.28091 | 1808 ft | 74 kts | 257° |
| 2026-05-05 18:55 | 48.69960 | 9.27338 | 1716 ft | 72 kts | 253° |
| 2026-05-05 18:55 | 48.69819 | 9.26612 | 1592 ft | 70 kts | 252° |
| 2026-05-05 18:56 | 48.69689 | 9.25902 | 1470 ft | 69 kts | 253° |
| 2026-05-05 18:56 | 48.69555 | 9.25173 | 1384 ft | 73 kts | 251° |
| 2026-05-05 18:56 | 48.69410 | 9.24425 | 1301 ft | 73 kts | 252° |
| 2026-05-05 18:56 | 48.69268 | 9.23694 | 1251 ft | 68 kts | 251° |
| 2026-05-05 18:57 | 48.69144 | 9.23020 | 1229 ft | 62 kts | 252° |
| 2026-05-05 18:57 | 48.69030 | 9.22427 | 1220 ft | 60 kts | 253° |
| 2026-05-05 18:57 | 48.68940 | 9.21899 | 1232 ft | 44 kts | 259° |
| 2026-05-05 18:57 | 48.68973 | 9.21528 | 1241 ft | 27 kts | 281° |
| 2026-05-05 18:58 | 48.69002 | 9.21389 | 1244 ft | 1 kts | 279° |
| 2026-05-05 18:58 | 48.69008 | 9.21343 | 1245 ft | 10 kts | 279° |
| 2026-05-05 18:58 | 48.69036 | 9.21175 | 1248 ft | 22 kts | 282° |
| 2026-05-05 18:58 | 48.69123 | 9.21077 | 1252 ft | 14 kts | 34° |
| 2026-05-05 18:59 | 48.69174 | 9.21232 | 1247 ft | 12 kts | 344° |
| 2026-05-05 18:59 | 48.69194 | 9.21211 | 1248 ft | 0 kts | 317° |